Obera, Argentina
Current Conditions -  °F | °C
As of 7:00 PM on Sunday 23 Nov 2014 (Local Time) from SARP Reporting Station
Clear Clear  
Wind Chill: 82°   Ceiling: Unl
Heat Index: 82°   Visibility: 6mi
Dew Point: 57°   Wind: 5mph
Humidity: 42%   Direction: 340°NNW
Pressure: 29.83"   Gusts: NA
Location:  27.48°S, 55.13°W
Report Text: SARP 232200Z 34004KT CAVOK 28/14 Q1010
Loading
Personal Weather Stations






























Interactive Weather Map New forecast layout! Learn more

10-Day Weather Forecast

Advertisements
Track Severe Weather on mobile